• Join FlightAware (Why Join?)
  • Login
  • US Flag 
02:54AM EDT


 

Airport Tracker/Info


-or-


 

Live Flight TrackerFlight Track Log ✈ N333RL ✈ 07-May-2013 ✈ KMDW - KDET

Flight Track Log - Related Links

Times and Time Zones

All times are in EDT time to prevent confusion due to time zone crossing. See the N333RL flight status page for this flight to view local times or setup timezone preferences in your user account.

Time Position Orientation Groundspeed Altitude Reporting Facility
EDT Latitude Longitude Course Direction KTS MPH feet Rate Location/Type
02:56PM 41.8000 -87.7333 90° East 167 192 1,800  Level Chicago TRACON
02:57PM 41.8000 -87.6500 90° East 200 230 3,700 1,560 Climbing Chicago TRACON
02:58PM 41.8114 -87.5889 76° East 203 234 5,000 1,140 Climbing Chicago Center
02:59PM 41.8072 -87.4919 93° East 253 291 6,000 2,280 Climbing Chicago Center
03:00PM 41.7969 -87.3911 98° East 273 314 9,800 3,660 Climbing Chicago Center
03:01PM 41.7822 -87.2583 98° East 306 352 13,700 3,300 Climbing Chicago Center
03:02PM 41.7719 -87.1475 97° East 303 349 16,700 2,340 Climbing Chicago Center
03:03PM 41.7864 -87.0300 81° East 325 374 18,600 1,080 Climbing Chicago Center
03:04PM 41.7989 -86.9108 82° East 325 374 19,000 180 Climbing Chicago Center
03:05PM 41.8119 -86.7853 82° East 336 387 19,000  Level Chicago Center
03:06PM 41.8292 -86.6225 82° East 372 428 19,000  Level Chicago Center
03:07PM 41.8467 -86.4747 81° East 400 460 19,000  Level Chicago Center
03:08PM 41.8983 -86.3417 62° Northeast 404 465 19,000  Level Chicago Center
03:09PM 41.9600 -86.2228 55° Northeast 391 450 19,000  Level Chicago Center
03:10PM 42.0214 -86.1011 56° Northeast 390 449 19,000  Level Chicago Center
03:11PM 42.0931 -85.9625 55° Northeast 399 459 19,000  Level Chicago Center
03:12PM 42.1553 -85.8372 56° Northeast 404 465 19,000  Level Chicago Center
03:13PM 42.2178 -85.7131 56° Northeast 403 464 19,000  Level Chicago Center
03:14PM 42.2789 -85.5911 56° Northeast 397 457 19,000  Level Chicago Center
03:16PM 42.3411 -85.4653 56° Northeast 402 463 19,000  Level Chicago Center
03:17PM 42.4136 -85.3169 56° Northeast 399 459 19,000  Level Chicago Center
03:18PM 42.4744 -85.1947 56° Northeast 396 456 19,000  Level Chicago Center
03:19PM 42.5347 -85.0711 56° Northeast 396 456 19,000  Level Chicago Center
03:20PM 42.5964 -84.9464 56° Northeast 399 459 19,000 -360 Level Chicago Center
03:21PM 42.6578 -84.8206 56° Northeast 401 461 18,300 -900 Descending Chicago Center
03:22PM 42.7103 -84.6581 66° East 392 451 17,200 -1,080 Descending Chicago Center
03:22PM 42.7156 -84.5936 84° East 372 428 16,600 -1,500 Descending Cleveland Center
03:23PM 42.7139 -84.4550 91° East 360 414 14,900 -1,920 Descending Cleveland Center
03:24PM 42.7117 -84.3981 93° East 353 406 14,000 -2,220 Descending Cleveland Center
03:24PM 42.7125 -84.3133 89° East 353 406 12,700 -1,920 Descending Cleveland Center
03:25PM 42.7039 -84.1914 95° East 338 389 10,900 -1,740 Descending Cleveland Center
03:26PM 42.6900 -84.0975 101° East 300 345 9,300 -840 Descending Cleveland Center
03:27PM 42.6689 -83.9664 102° East 265 305 9,100 -540 Descending Cleveland Center
03:29PM 42.6489 -83.8636 105° East 278 320 8,100 -1,020 Descending Cleveland Center
03:29PM 42.6281 -83.7919 112° Southeast 266 306 7,300 -1,200 Descending Cleveland Center
03:30PM 42.6203 -83.7717 118° Southeast 257 296 6,900 -1,380 Descending Cleveland Center
03:30PM 42.6033 -83.7031 109° East 261 300 5,900 -1,440 Descending Cleveland Center
03:31PM 42.6000 -83.6719 98° East 259 298 5,500 -960 Descending Cleveland Center
03:31PM 42.5850 -83.6092 108° East 261 300 5,000 -840 Descending Cleveland Center
03:32PM 42.5836 -83.5808 94° East 251 289 4,700 -540 Descending Cleveland Center
03:33PM 42.5672 -83.4928 104° East 236 272 4,300 -300 Descending Cleveland Center
03:34PM 42.5506 -83.4103 105° East 225 259 4,100 -120 Descending Cleveland Center
03:35PM 42.5339 -83.3278 105° East 225 259 4,100 -420 Level Cleveland Center
03:36PM 42.5150 -83.2422 107° East 228 262 3,300 -480 Descending Cleveland Center
03:37PM 42.5022 -83.1631 102° East 198 228 3,200 -360 Descending Cleveland Center
03:38PM 42.4850 -83.0947 109° East 177 204 2,600 -780 Descending Cleveland Center
03:39PM 42.4525 -83.0539 137° Southeast 162 186 1,700 -900 Descending Cleveland Center
03:41PM 42.4093 -83.0102 105° East  Level Estimated
03:48PM 42.4093 -83.0102 105° East  Level Estimated
03:49PM 42.4093 -83.0102 105° East  Level Estimated